Time;durP1;ratioP1;P1;durP2;ratioP2;P2;SDS_P1;SDS_P2;PMS_P1;PMS_P2;Temp;Humidity;BMP_temperature;BMP_pressure;BME280_temperature;BME280_humidity;BME280_pressure;Samples;Min_cycle;Max_cycle;Signal;HPM_P1;HPM_P2
2023/07/16 00:01:54;;;;;;;3.05;1.20;;;;;;;;;;5076935;28;20045;-76
2023/07/16 00:04:21;;;;;;;1.77;0.93;;;;;;;;;;5079065;28;20094;-74
2023/07/16 00:06:48;;;;;;;2.22;0.90;;;;;;;;;;5080572;28;20053;-75
2023/07/16 00:09:15;;;;;;;3.08;1.38;;;;;;;;;;5075701;28;20056;-76
2023/07/16 00:11:42;;;;;;;2.83;0.90;;;;;;;;;;5079208;28;20071;-75
2023/07/16 00:14:11;;;;;;;2.13;0.90;;;;;;;;;;5080630;28;20044;-73
2023/07/16 00:16:38;;;;;;;4.57;1.23;;;;;;;;;;5078763;28;20044;-79
2023/07/16 00:19:05;;;;;;;5.47;1.00;;;;;;;;;;5078315;28;20240;-80
2023/07/16 00:21:32;;;;;;;2.67;0.82;;;;;;;;;;5080859;28;20111;-74
2023/07/16 00:23:59;;;;;;;4.93;1.30;;;;;;;;;;5081232;28;20090;-76
2023/07/16 00:26:25;;;;;;;2.20;0.93;;;;;;;;;;5078473;28;20045;-75
2023/07/16 00:28:52;;;;;;;3.10;0.95;;;;;;;;;;5078243;28;20055;-75
2023/07/16 00:31:19;;;;;;;4.20;0.90;;;;;;;;;;5076145;28;20256;-78
2023/07/16 00:33:46;;;;;;;2.33;0.80;;;;;;;;;;5077937;28;20439;-80
2023/07/16 00:36:12;;;;;;;2.70;0.98;;;;;;;;;;5079464;28;20080;-81
2023/07/16 00:38:41;;;;;;;3.33;0.82;;;;;;;;;;5077437;28;20107;-73
2023/07/16 00:41:08;;;;;;;5.05;1.10;;;;;;;;;;5077465;28;20093;-76
2023/07/16 00:43:35;;;;;;;2.13;0.90;;;;;;;;;;5072172;28;20052;-75
2023/07/16 00:46:02;;;;;;;2.65;0.80;;;;;;;;;;5073817;28;20271;-76
2023/07/16 00:48:29;;;;;;;2.03;0.80;;;;;;;;;;5074553;28;20117;-76
2023/07/16 00:50:56;;;;;;;2.58;0.90;;;;;;;;;;5073568;28;20500;-75
2023/07/16 00:53:23;;;;;;;2.83;1.08;;;;;;;;;;5074640;28;20072;-76
2023/07/16 00:55:50;;;;;;;7.00;1.00;;;;;;;;;;5074691;28;20041;-76
2023/07/16 00:58:17;;;;;;;3.65;0.98;;;;;;;;;;5072143;28;20055;-76
2023/07/16 01:00:44;;;;;;;3.70;0.88;;;;;;;;;;5073880;28;20058;-78
2023/07/16 01:03:14;;;;;;;2.28;0.90;;;;;;;;;;5071184;28;20052;-77
2023/07/16 01:06:01;;;;;;;4.07;1.05;;;;;;;;;;5071518;28;20082;-75
2023/07/16 01:08:45;;;;;;;1.90;0.95;;;;;;;;;;5071312;28;20052;-76
2023/07/16 01:11:12;;;;;;;2.33;0.90;;;;;;;;;;5070691;28;20093;-75
2023/07/16 01:13:39;;;;;;;7.80;0.90;;;;;;;;;;5068430;28;20047;-77
2023/07/16 01:16:06;;;;;;;3.22;1.00;;;;;;;;;;5069944;28;20048;-75
2023/07/16 01:18:33;;;;;;;4.00;1.13;;;;;;;;;;5071384;28;20050;-77
2023/07/16 01:20:59;;;;;;;1.88;0.93;;;;;;;;;;5070247;28;20044;-76
2023/07/16 01:23:39;;;;;;;5.75;1.20;;;;;;;;;;5072350;28;20063;-76
2023/07/16 01:26:18;;;;;;;3.40;1.02;;;;;;;;;;5071597;28;20044;-78
2023/07/16 01:29:09;;;;;;;2.53;0.82;;;;;;;;;;5072133;28;20827;-76
2023/07/16 01:31:37;;;;;;;2.22;1.00;;;;;;;;;;5075477;28;20422;-80
2023/07/16 01:34:05;;;;;;;1.90;0.93;;;;;;;;;;5072428;28;20317;-76
2023/07/16 01:36:34;;;;;;;2.67;0.80;;;;;;;;;;5074085;28;20668;-75
2023/07/16 01:39:02;;;;;;;4.60;0.90;;;;;;;;;;5070625;28;20124;-77
2023/07/16 01:41:29;;;;;;;1.92;0.90;;;;;;;;;;5073968;28;20052;-74
2023/07/16 01:43:56;;;;;;;2.50;0.95;;;;;;;;;;5071378;28;20048;-74
2023/07/16 01:46:22;;;;;;;3.50;0.85;;;;;;;;;;5073697;28;20048;-76
2023/07/16 01:48:49;;;;;;;3.50;1.00;;;;;;;;;;5073556;28;20272;-80
2023/07/16 01:51:16;;;;;;;3.22;1.20;;;;;;;;;;5072243;28;20045;-80
2023/07/16 01:53:42;;;;;;;4.43;0.95;;;;;;;;;;5070546;28;20047;-75
2023/07/16 01:56:09;;;;;;;3.08;0.85;;;;;;;;;;5072692;28;20067;-80
2023/07/16 01:58:36;;;;;;;2.03;0.85;;;;;;;;;;5069803;28;20502;-75
2023/07/16 02:01:03;;;;;;;5.68;0.95;;;;;;;;;;5073759;28;20047;-75
2023/07/16 02:03:29;;;;;;;1.40;0.80;;;;;;;;;;5074628;28;20048;-76
2023/07/16 02:05:56;;;;;;;2.83;0.85;;;;;;;;;;5074150;28;20115;-78
2023/07/16 02:08:23;;;;;;;3.83;0.80;;;;;;;;;;5071888;28;20052;-75
2023/07/16 02:10:50;;;;;;;1.38;0.90;;;;;;;;;;5073672;28;20048;-81
2023/07/16 02:13:17;;;;;;;1.80;0.93;;;;;;;;;;5077338;28;20109;-75
2023/07/16 02:15:43;;;;;;;1.95;0.80;;;;;;;;;;5077083;28;20052;-77
2023/07/16 02:18:10;;;;;;;2.08;0.90;;;;;;;;;;5072237;28;20051;-75
2023/07/16 02:20:37;;;;;;;2.08;0.90;;;;;;;;;;5069418;28;20054;-75
2023/07/16 02:23:04;;;;;;;4.05;0.80;;;;;;;;;;5070247;28;20051;-79
2023/07/16 02:25:32;;;;;;;4.85;0.95;;;;;;;;;;5070945;28;20055;-76
2023/07/16 02:27:58;;;;;;;2.55;1.00;;;;;;;;;;5071369;28;20595;-75
2023/07/16 02:30:25;;;;;;;1.70;1.02;;;;;;;;;;5072946;28;20045;-75
2023/07/16 02:32:52;;;;;;;1.80;0.70;;;;;;;;;;5072782;28;20040;-75
2023/07/16 02:35:19;;;;;;;3.80;1.02;;;;;;;;;;5071931;28;20045;-77
2023/07/16 02:37:46;;;;;;;1.33;0.75;;;;;;;;;;5068243;28;20141;-75
2023/07/16 02:40:12;;;;;;;1.33;0.63;;;;;;;;;;5075112;28;20277;-79
2023/07/16 02:42:39;;;;;;;2.45;0.80;;;;;;;;;;5069466;28;20044;-75
2023/07/16 02:45:06;;;;;;;3.03;0.80;;;;;;;;;;5071484;28;20865;-79
2023/07/16 02:47:33;;;;;;;2.13;0.88;;;;;;;;;;5071958;28;20052;-74
2023/07/16 02:50:00;;;;;;;2.65;0.90;;;;;;;;;;5073033;28;20147;-77
2023/07/16 02:52:27;;;;;;;2.60;0.85;;;;;;;;;;5072908;28;20404;-78
2023/07/16 02:54:54;;;;;;;1.83;0.80;;;;;;;;;;5072268;28;20116;-74
2023/07/16 02:57:22;;;;;;;2.17;0.73;;;;;;;;;;5073639;28;20229;-74
2023/07/16 02:59:48;;;;;;;3.08;1.05;;;;;;;;;;5075856;28;20538;-77
2023/07/16 03:02:15;;;;;;;2.40;1.10;;;;;;;;;;5071683;28;20222;-75
2023/07/16 03:04:42;;;;;;;5.22;1.00;;;;;;;;;;5074020;28;20064;-74
2023/07/16 03:07:09;;;;;;;2.03;0.90;;;;;;;;;;5072811;28;20056;-77
2023/07/16 03:09:35;;;;;;;5.22;1.30;;;;;;;;;;5071335;28;20048;-74
2023/07/16 03:12:02;;;;;;;3.15;0.80;;;;;;;;;;5072889;28;20052;-80
2023/07/16 03:14:29;;;;;;;4.80;0.85;;;;;;;;;;5071475;28;20089;-74
2023/07/16 03:16:56;;;;;;;2.65;0.93;;;;;;;;;;5073736;28;20048;-77
2023/07/16 03:19:23;;;;;;;3.38;0.93;;;;;;;;;;5070939;28;20322;-81
2023/07/16 03:21:50;;;;;;;4.65;0.98;;;;;;;;;;5072463;28;20481;-81
2023/07/16 03:24:16;;;;;;;5.13;0.82;;;;;;;;;;5070724;28;20054;-81
2023/07/16 03:26:43;;;;;;;5.13;0.88;;;;;;;;;;5071596;28;20049;-76
2023/07/16 03:29:10;;;;;;;1.95;0.90;;;;;;;;;;5070854;28;20052;-76
2023/07/16 03:31:36;;;;;;;2.30;0.80;;;;;;;;;;5070738;28;20048;-74
2023/07/16 03:34:03;;;;;;;2.25;0.88;;;;;;;;;;5073965;28;20391;-75
2023/07/16 03:36:30;;;;;;;1.52;0.82;;;;;;;;;;5068503;28;20645;-75
2023/07/16 03:38:56;;;;;;;5.15;1.05;;;;;;;;;;5073010;28;20083;-75
2023/07/16 03:41:23;;;;;;;2.47;0.80;;;;;;;;;;5068482;28;20041;-74
2023/07/16 03:43:50;;;;;;;3.58;1.00;;;;;;;;;;5070670;28;20049;-75
2023/07/16 03:46:16;;;;;;;2.08;0.95;;;;;;;;;;5070642;28;20052;-77
2023/07/16 03:48:44;;;;;;;1.38;0.80;;;;;;;;;;5070625;28;20084;-74
2023/07/16 03:51:11;;;;;;;2.55;0.90;;;;;;;;;;5072616;28;20068;-75
2023/07/16 03:53:38;;;;;;;1.25;0.90;;;;;;;;;;5069125;28;20080;-74
2023/07/16 03:56:05;;;;;;;2.78;0.82;;;;;;;;;;5070305;28;20083;-76
2023/07/16 03:58:31;;;;;;;2.60;1.15;;;;;;;;;;5072597;28;20057;-75
2023/07/16 04:00:58;;;;;;;4.78;1.00;;;;;;;;;;5071208;28;20048;-77
2023/07/16 04:03:24;;;;;;;2.83;0.88;;;;;;;;;;5073926;28;20056;-74
2023/07/16 04:05:51;;;;;;;1.92;0.90;;;;;;;;;;5071034;28;20115;-75
2023/07/16 04:08:18;;;;;;;2.92;0.98;;;;;;;;;;5074702;28;20060;-78
2023/07/16 04:10:44;;;;;;;2.33;0.88;;;;;;;;;;5073568;28;20047;-76
2023/07/16 04:13:11;;;;;;;2.03;0.82;;;;;;;;;;5073449;28;20063;-75
2023/07/16 04:15:38;;;;;;;3.28;1.05;;;;;;;;;;5077868;28;20472;-75
2023/07/16 04:18:04;;;;;;;2.40;0.70;;;;;;;;;;5075717;28;20052;-74
2023/07/16 04:20:33;;;;;;;2.55;0.95;;;;;;;;;;5071522;28;20049;-74
2023/07/16 04:23:00;;;;;;;2.65;1.00;;;;;;;;;;5074376;28;20070;-75
2023/07/16 04:25:27;;;;;;;3.08;0.98;;;;;;;;;;5074681;28;20380;-74
2023/07/16 04:27:54;;;;;;;5.03;1.30;;;;;;;;;;5078369;28;20063;-75
2023/07/16 04:30:21;;;;;;;7.05;1.10;;;;;;;;;;5077467;28;20040;-74
2023/07/16 04:32:48;;;;;;;1.75;0.80;;;;;;;;;;5074538;28;20512;-75
2023/07/16 04:35:15;;;;;;;4.10;1.10;;;;;;;;;;5075871;28;20488;-75
2023/07/16 04:37:41;;;;;;;2.17;0.90;;;;;;;;;;5076914;28;20248;-74
2023/07/16 04:40:08;;;;;;;3.35;0.88;;;;;;;;;;5077364;28;20124;-74
2023/07/16 04:42:35;;;;;;;2.70;0.75;;;;;;;;;;5080717;28;20050;-74
2023/07/16 04:45:04;;;;;;;1.95;0.82;;;;;;;;;;5074906;28;20045;-74
2023/07/16 04:47:31;;;;;;;3.97;0.90;;;;;;;;;;5075351;28;20049;-75
2023/07/16 04:49:59;;;;;;;2.78;0.95;;;;;;;;;;5079281;28;20050;-75
2023/07/16 04:52:25;;;;;;;1.17;0.65;;;;;;;;;;5075740;28;20056;-75
2023/07/16 04:54:52;;;;;;;3.92;1.10;;;;;;;;;;5079839;28;20552;-74
2023/07/16 04:57:19;;;;;;;1.98;0.90;;;;;;;;;;5076922;28;20052;-74
2023/07/16 04:59:49;;;;;;;5.20;0.90;;;;;;;;;;5076879;28;20052;-75
2023/07/16 05:02:17;;;;;;;2.65;0.85;;;;;;;;;;5079561;28;20321;-74
2023/07/16 05:04:44;;;;;;;4.75;1.00;;;;;;;;;;5077448;28;20147;-75
2023/07/16 05:07:11;;;;;;;5.55;1.13;;;;;;;;;;5075536;28;20040;-77
2023/07/16 05:09:37;;;;;;;2.63;0.82;;;;;;;;;;5080135;28;20054;-75
2023/07/16 05:12:04;;;;;;;6.53;1.27;;;;;;;;;;5079844;28;20112;-74
2023/07/16 05:14:31;;;;;;;3.03;1.13;;;;;;;;;;5076343;28;20111;-75
2023/07/16 05:16:58;;;;;;;0.90;0.68;;;;;;;;;;5074286;28;20525;-74
2023/07/16 05:19:25;;;;;;;2.95;0.88;;;;;;;;;;5074268;28;20060;-74
2023/07/16 05:21:51;;;;;;;2.33;0.85;;;;;;;;;;5072767;28;20041;-75
2023/07/16 05:24:18;;;;;;;1.80;0.80;;;;;;;;;;5079707;28;20052;-74
2023/07/16 05:26:45;;;;;;;3.92;1.00;;;;;;;;;;5078184;28;20060;-76
2023/07/16 05:29:11;;;;;;;4.40;0.90;;;;;;;;;;5080939;28;20285;-75
2023/07/16 05:31:38;;;;;;;4.28;0.73;;;;;;;;;;5076286;28;20143;-74
2023/07/16 05:34:05;;;;;;;2.58;0.93;;;;;;;;;;5079582;28;20332;-74
2023/07/16 05:36:31;;;;;;;4.50;0.98;;;;;;;;;;5078876;28;20044;-74
2023/07/16 05:38:58;;;;;;;4.03;1.08;;;;;;;;;;5075869;28;20071;-74
2023/07/16 05:41:25;;;;;;;2.67;0.93;;;;;;;;;;5079692;28;20048;-74
2023/07/16 05:43:51;;;;;;;6.45;1.15;;;;;;;;;;5079614;28;20054;-74
2023/07/16 05:46:18;;;;;;;3.50;1.08;;;;;;;;;;5074670;28;20080;-74
2023/07/16 05:48:45;;;;;;;7.28;1.35;;;;;;;;;;5071856;28;20052;-75
2023/07/16 05:51:12;;;;;;;4.63;1.00;;;;;;;;;;5077807;28;20095;-75
2023/07/16 05:53:39;;;;;;;4.38;1.17;;;;;;;;;;5076725;28;20048;-73
2023/07/16 05:56:06;;;;;;;2.00;0.93;;;;;;;;;;5073278;28;20049;-73
2023/07/16 05:58:32;;;;;;;1.77;0.88;;;;;;;;;;5078513;28;20048;-73
2023/07/16 06:00:59;;;;;;;4.03;0.80;;;;;;;;;;5075369;28;20666;-78
2023/07/16 06:03:26;;;;;;;5.25;1.15;;;;;;;;;;5075976;28;20163;-74
2023/07/16 06:05:53;;;;;;;3.05;0.88;;;;;;;;;;5078320;28;20094;-73
2023/07/16 06:08:20;;;;;;;4.60;1.33;;;;;;;;;;5078951;28;20044;-73
2023/07/16 06:10:46;;;;;;;4.90;1.00;;;;;;;;;;5078968;28;20111;-79
2023/07/16 06:13:13;;;;;;;2.55;0.75;;;;;;;;;;5077489;28;20048;-79
2023/07/16 06:15:40;;;;;;;4.53;1.05;;;;;;;;;;5080885;28;20332;-72
2023/07/16 06:18:06;;;;;;;1.98;0.68;;;;;;;;;;5080400;28;20048;-72
2023/07/16 06:20:33;;;;;;;3.75;0.98;;;;;;;;;;5080714;28;20059;-71
2023/07/16 06:23:00;;;;;;;3.08;1.00;;;;;;;;;;5080234;28;20113;-78
2023/07/16 06:25:27;;;;;;;3.33;0.90;;;;;;;;;;5080157;28;20052;-71
2023/07/16 06:27:53;;;;;;;4.07;1.00;;;;;;;;;;5080194;28;20336;-71
2023/07/16 06:30:20;;;;;;;3.42;0.90;;;;;;;;;;5079242;28;20045;-70
2023/07/16 06:32:47;;;;;;;1.42;0.77;;;;;;;;;;5080061;28;20183;-70
2023/07/16 06:35:14;;;;;;;3.40;1.00;;;;;;;;;;5080496;28;20048;-71
2023/07/16 06:37:40;;;;;;;2.38;1.00;;;;;;;;;;5079493;28;20052;-71
2023/07/16 06:40:08;;;;;;;2.70;0.85;;;;;;;;;;5072734;28;20060;-72
2023/07/16 06:42:34;;;;;;;0.95;0.70;;;;;;;;;;5076528;28;20224;-73
2023/07/16 06:45:01;;;;;;;5.10;1.10;;;;;;;;;;5074868;28;20048;-72
2023/07/16 06:47:28;;;;;;;3.20;0.95;;;;;;;;;;5064888;28;20060;-73
2023/07/16 06:49:54;;;;;;;4.72;1.13;;;;;;;;;;5066346;28;20063;-72
2023/07/16 06:52:22;;;;;;;5.18;1.02;;;;;;;;;;5064680;28;20049;-71
2023/07/16 06:54:49;;;;;;;2.38;1.10;;;;;;;;;;5064780;28;20059;-71
2023/07/16 06:57:19;;;;;;;2.60;1.00;;;;;;;;;;5070477;28;20070;-71
2023/07/16 06:59:45;;;;;;;2.50;0.83;;;;;;;;;;5067073;28;20717;-72
2023/07/16 07:02:12;;;;;;;2.35;0.88;;;;;;;;;;5069194;28;20350;-71
2023/07/16 07:04:39;;;;;;;2.17;0.80;;;;;;;;;;5070277;28;20083;-73
2023/07/16 07:07:06;;;;;;;4.25;1.00;;;;;;;;;;5071142;28;20240;-73
2023/07/16 07:09:33;;;;;;;2.33;0.80;;;;;;;;;;5071148;28;20072;-71
2023/07/16 07:11:59;;;;;;;2.65;0.88;;;;;;;;;;5077368;28;20052;-74
2023/07/16 07:14:26;;;;;;;2.08;0.63;;;;;;;;;;5077867;28;20044;-72
2023/07/16 07:16:53;;;;;;;3.35;0.93;;;;;;;;;;5077164;28;20040;-73
2023/07/16 07:19:19;;;;;;;3.97;0.75;;;;;;;;;;5074380;28;20052;-72
2023/07/16 07:21:46;;;;;;;5.50;1.10;;;;;;;;;;5076525;28;20542;-73
2023/07/16 07:24:13;;;;;;;6.53;1.08;;;;;;;;;;5077040;28;20124;-71
2023/07/16 07:26:39;;;;;;;7.38;1.10;;;;;;;;;;5076439;28;20268;-72
2023/07/16 07:29:06;;;;;;;1.10;0.68;;;;;;;;;;5078072;28;20116;-72
2023/07/16 07:31:33;;;;;;;3.72;0.75;;;;;;;;;;5075612;28;20207;-78
2023/07/16 07:34:00;;;;;;;3.20;0.80;;;;;;;;;;5079560;28;20226;-71
2023/07/16 07:36:27;;;;;;;2.20;0.95;;;;;;;;;;5077415;28;20048;-73
2023/07/16 07:38:53;;;;;;;5.03;0.82;;;;;;;;;;5078137;28;20336;-74
2023/07/16 07:41:20;;;;;;;2.63;0.80;;;;;;;;;;5080529;28;20040;-71
2023/07/16 07:43:49;;;;;;;3.88;0.90;;;;;;;;;;5083789;28;20052;-73
2023/07/16 07:46:16;;;;;;;3.08;0.90;;;;;;;;;;5083925;28;20045;-72
2023/07/16 07:48:43;;;;;;;3.17;0.70;;;;;;;;;;5082278;28;20075;-71
2023/07/16 07:51:10;;;;;;;2.75;0.85;;;;;;;;;;5082226;28;20041;-73
2023/07/16 07:53:36;;;;;;;1.65;0.60;;;;;;;;;;5082524;28;20052;-79
2023/07/16 07:56:03;;;;;;;67.57;4.00;;;;;;;;;;5081972;28;20107;-78
2023/07/16 07:58:30;;;;;;;5.03;1.10;;;;;;;;;;5082380;28;20044;-73
2023/07/16 08:00:56;;;;;;;2.05;0.73;;;;;;;;;;5083311;28;20044;-74
2023/07/16 08:03:23;;;;;;;3.42;0.80;;;;;;;;;;5082704;28;20602;-72
2023/07/16 08:05:50;;;;;;;2.00;0.77;;;;;;;;;;5083185;28;20113;-72
2023/07/16 08:08:17;;;;;;;4.28;0.73;;;;;;;;;;5080723;28;20098;-72
2023/07/16 08:10:45;;;;;;;7.70;0.90;;;;;;;;;;5079927;28;20059;-74
2023/07/16 08:13:12;;;;;;;2.53;0.80;;;;;;;;;;5077387;28;20127;-70
2023/07/16 08:15:39;;;;;;;2.30;0.77;;;;;;;;;;5073207;28;20146;-69
2023/07/16 08:18:06;;;;;;;2.67;0.68;;;;;;;;;;5073736;28;20044;-70
2023/07/16 08:20:33;;;;;;;2.60;0.60;;;;;;;;;;5074848;28;20062;-72
2023/07/16 08:22:59;;;;;;;1.58;0.70;;;;;;;;;;5076868;28;20105;-75
2023/07/16 08:25:26;;;;;;;2.78;0.77;;;;;;;;;;5077753;28;20102;-70
2023/07/16 08:27:53;;;;;;;2.10;0.70;;;;;;;;;;5073307;28;20056;-73
2023/07/16 08:30:20;;;;;;;4.43;1.10;;;;;;;;;;5071675;28;20044;-70
2023/07/16 08:32:46;;;;;;;3.15;0.77;;;;;;;;;;5074549;28;20515;-69
2023/07/16 08:35:16;;;;;;;3.40;0.75;;;;;;;;;;5071352;28;20074;-69
2023/07/16 08:37:44;;;;;;;3.13;0.70;;;;;;;;;;5071821;28;20052;-69
2023/07/16 08:40:11;;;;;;;3.80;0.80;;;;;;;;;;5072276;28;20040;-69
2023/07/16 08:42:39;;;;;;;3.33;0.80;;;;;;;;;;5071507;28;20044;-69
2023/07/16 08:45:08;;;;;;;3.20;0.80;;;;;;;;;;5070506;28;20052;-69
2023/07/16 08:47:35;;;;;;;2.25;0.80;;;;;;;;;;5071925;28;20052;-69
2023/07/16 08:50:03;;;;;;;4.05;0.80;;;;;;;;;;5078755;28;20044;-72
2023/07/16 08:52:30;;;;;;;2.42;0.82;;;;;;;;;;5070832;28;20045;-69
2023/07/16 08:54:57;;;;;;;2.92;0.80;;;;;;;;;;5072976;28;20060;-70
2023/07/16 08:57:24;;;;;;;1.88;0.75;;;;;;;;;;5072173;28;20075;-72
2023/07/16 08:59:56;;;;;;;3.58;0.90;;;;;;;;;;5077502;28;20051;-81
2023/07/16 09:02:23;;;;;;;2.10;0.90;;;;;;;;;;5077625;28;20063;-70
2023/07/16 09:04:53;;;;;;;2.75;0.75;;;;;;;;;;5081639;28;20098;-69
2023/07/16 09:07:20;;;;;;;5.38;1.08;;;;;;;;;;5081406;28;20340;-69
2023/07/16 09:09:59;;;;;;;4.63;0.80;;;;;;;;;;5074994;28;20044;-69
2023/07/16 09:12:27;;;;;;;1.92;0.70;;;;;;;;;;5053578;28;20052;-69
2023/07/16 09:14:54;;;;;;;1.75;0.60;;;;;;;;;;5052516;28;20373;-69
2023/07/16 09:17:23;;;;;;;6.18;0.90;;;;;;;;;;5052862;28;20047;-70
2023/07/16 09:19:51;;;;;;;3.77;0.70;;;;;;;;;;5050822;28;20052;-70
2023/07/16 09:22:19;;;;;;;1.52;0.75;;;;;;;;;;5049936;28;20316;-71
2023/07/16 09:24:47;;;;;;;2.83;0.80;;;;;;;;;;5051890;28;20053;-76
2023/07/16 09:27:14;;;;;;;4.65;1.00;;;;;;;;;;5049184;28;20045;-82
2023/07/16 09:29:41;;;;;;;4.88;1.08;;;;;;;;;;5049658;28;20397;-69
2023/07/16 09:32:08;;;;;;;4.40;1.08;;;;;;;;;;5050086;28;20052;-70
2023/07/16 09:34:35;;;;;;;5.97;1.33;;;;;;;;;;5051295;28;20588;-69
2023/07/16 09:37:02;;;;;;;2.60;0.82;;;;;;;;;;5054080;28;20347;-73
2023/07/16 09:39:30;;;;;;;2.53;0.85;;;;;;;;;;5052194;28;20049;-70
2023/07/16 09:41:58;;;;;;;2.88;0.95;;;;;;;;;;5051068;28;20056;-69
2023/07/16 09:44:25;;;;;;;4.55;0.75;;;;;;;;;;5050094;28;20060;-74
2023/07/16 09:46:52;;;;;;;2.45;0.85;;;;;;;;;;5062022;28;20062;-73
2023/07/16 09:49:19;;;;;;;2.97;0.85;;;;;;;;;;5070774;28;20045;-73
2023/07/16 09:51:47;;;;;;;4.93;0.98;;;;;;;;;;5069700;28;20052;-80
2023/07/16 09:54:15;;;;;;;4.47;0.77;;;;;;;;;;5069183;28;20051;-72
2023/07/16 09:56:48;;;;;;;2.72;0.80;;;;;;;;;;5069245;28;20492;-71
2023/07/16 09:59:17;;;;;;;5.43;0.90;;;;;;;;;;5069242;28;20059;-72
2023/07/16 10:01:44;;;;;;;4.00;1.00;;;;;;;;;;5077213;28;20040;-71
2023/07/16 10:04:18;;;;;;;3.33;0.70;;;;;;;;;;5069668;28;20401;-72
2023/07/16 10:07:00;;;;;;;14.95;1.92;;;;;;;;;;5075726;28;20048;-71
2023/07/16 10:09:41;;;;;;;5.82;1.40;;;;;;;;;;5071413;28;20428;-71
2023/07/16 10:12:08;;;;;;;;;;;;;;;;;;5072980;28;20402;-71
2023/07/16 10:15:05;;;;;;;2.10;0.85;;;;;;;;;;5069726;28;19923;-74
2023/07/16 10:17:32;;;;;;;2.97;0.85;;;;;;;;;;5065464;28;20051;-78
2023/07/16 10:20:04;;;;;;;2.50;0.90;;;;;;;;;;5078230;28;20056;-74
2023/07/16 10:22:38;;;;;;;2.47;0.88;;;;;;;;;;5073446;28;20419;-71
2023/07/16 10:25:23;;;;;;;2.88;0.80;;;;;;;;;;5069999;28;20079;-71
2023/07/16 10:27:51;;;;;;;4.15;1.00;;;;;;;;;;5071485;28;20077;-70
2023/07/16 10:30:19;;;;;;;2.75;0.80;;;;;;;;;;5068532;28;20052;-71
2023/07/16 10:32:46;;;;;;;1.20;0.65;;;;;;;;;;5068572;28;20055;-70
2023/07/16 10:35:13;;;;;;;3.38;0.90;;;;;;;;;;5067997;28;20053;-73
2023/07/16 10:37:40;;;;;;;2.20;0.93;;;;;;;;;;5068420;28;20651;-70
2023/07/16 10:40:11;;;;;;;2.97;0.98;;;;;;;;;;5067559;28;20496;-71
2023/07/16 10:42:39;;;;;;;5.07;0.80;;;;;;;;;;5067972;28;20051;-73
2023/07/16 10:45:07;;;;;;;2.70;0.85;;;;;;;;;;5067002;28;20080;-70
2023/07/16 10:47:36;;;;;;;2.13;0.82;;;;;;;;;;5066931;28;20433;-70
2023/07/16 10:50:05;;;;;;;1.90;0.82;;;;;;;;;;5066979;28;20671;-72
2023/07/16 10:52:32;;;;;;;3.78;1.00;;;;;;;;;;5067507;28;20048;-71
2023/07/16 10:54:58;;;;;;;4.35;0.85;;;;;;;;;;5068894;28;20048;-73
2023/07/16 10:57:28;;;;;;;1.92;0.80;;;;;;;;;;5068599;28;20518;-70
2023/07/16 10:59:57;;;;;;;2.65;0.90;;;;;;;;;;5067923;28;20045;-75
2023/07/16 11:02:25;;;;;;;3.60;0.60;;;;;;;;;;5068000;28;20178;-72
2023/07/16 11:04:57;;;;;;;2.15;0.93;;;;;;;;;;5070408;28;20056;-72
2023/07/16 11:07:24;;;;;;;2.30;1.00;;;;;;;;;;5071145;28;20041;-71
2023/07/16 11:09:53;;;;;;;3.47;0.90;;;;;;;;;;5069780;28;20049;-71
2023/07/16 11:12:23;;;;;;;2.15;0.70;;;;;;;;;;5070211;28;20048;-71
2023/07/16 11:14:51;;;;;;;;;;;;;;;;;;5068832;28;20041;-71
2023/07/16 11:17:19;;;;;;;2.45;0.95;;;;;;;;;;5075379;28;19927;-70
2023/07/16 11:19:48;;;;;;;3.85;1.08;;;;;;;;;;5077322;28;20055;-71
2023/07/16 11:22:15;;;;;;;3.63;0.90;;;;;;;;;;5075614;28;20048;-70
2023/07/16 11:24:45;;;;;;;4.63;1.10;;;;;;;;;;5075946;28;20048;-72
2023/07/16 11:27:27;;;;;;;2.25;1.00;;;;;;;;;;5073721;28;20048;-71
2023/07/16 11:29:56;;;;;;;3.10;0.80;;;;;;;;;;5072603;28;20045;-71
2023/07/16 11:32:26;;;;;;;2.20;0.70;;;;;;;;;;5075205;28;20045;-71
2023/07/16 11:34:54;;;;;;;1.92;0.80;;;;;;;;;;5070768;28;20049;-71
2023/07/16 11:37:22;;;;;;;4.10;0.90;;;;;;;;;;5073942;28;20067;-71
2023/07/16 11:39:49;;;;;;;1.75;0.60;;;;;;;;;;5071576;28;20565;-71
2023/07/16 11:42:23;;;;;;;3.55;1.10;;;;;;;;;;5072457;28;20047;-71
2023/07/16 11:44:50;;;;;;;5.45;1.00;;;;;;;;;;5071553;28;20055;-72
2023/07/16 11:47:18;;;;;;;2.58;0.65;;;;;;;;;;5071701;28;20048;-71
2023/07/16 11:49:45;;;;;;;4.55;1.00;;;;;;;;;;5071541;28;20071;-71
2023/07/16 11:52:11;;;;;;;1.83;0.77;;;;;;;;;;5074532;28;20049;-70
2023/07/16 11:54:38;;;;;;;5.05;0.90;;;;;;;;;;5071407;28;20445;-70
2023/07/16 11:57:05;;;;;;;2.35;0.90;;;;;;;;;;5071603;28;20044;-70
2023/07/16 11:59:32;;;;;;;2.45;0.80;;;;;;;;;;5072020;28;20292;-71
2023/07/16 12:02:00;;;;;;;3.50;0.80;;;;;;;;;;5063127;28;20394;-71
2023/07/16 12:04:27;;;;;;;1.63;0.70;;;;;;;;;;5070248;28;20063;-72
2023/07/16 12:06:53;;;;;;;3.15;1.20;;;;;;;;;;5051936;28;20053;-71
2023/07/16 12:09:20;;;;;;;2.85;1.00;;;;;;;;;;5058002;28;20040;-71
2023/07/16 12:11:47;;;;;;;3.65;0.88;;;;;;;;;;5071474;28;20071;-75
2023/07/16 12:14:13;;;;;;;2.88;1.05;;;;;;;;;;5086802;28;20053;-74
2023/07/16 12:16:40;;;;;;;1.95;0.90;;;;;;;;;;5072903;28;20050;-72
2023/07/16 12:19:09;;;;;;;2.38;0.90;;;;;;;;;;5065439;28;20080;-72
2023/07/16 12:21:36;;;;;;;4.35;1.35;;;;;;;;;;5062887;28;20104;-72
2023/07/16 12:24:05;;;;;;;4.10;0.82;;;;;;;;;;5050656;28;20402;-74
2023/07/16 12:26:32;;;;;;;3.92;1.27;;;;;;;;;;5050092;28;20539;-72
2023/07/16 12:29:02;;;;;;;2.97;0.73;;;;;;;;;;5053322;28;20049;-71
2023/07/16 12:31:32;;;;;;;4.18;1.00;;;;;;;;;;5049719;28;20493;-71
2023/07/16 12:34:01;;;;;;;2.92;1.10;;;;;;;;;;5053317;28;20386;-74
2023/07/16 12:36:28;;;;;;;1.98;0.80;;;;;;;;;;5070352;28;20070;-71
2023/07/16 12:38:55;;;;;;;2.92;0.90;;;;;;;;;;5076281;28;20045;-71
2023/07/16 12:41:22;;;;;;;3.80;1.08;;;;;;;;;;5077262;28;20228;-73
2023/07/16 12:43:48;;;;;;;2.80;1.10;;;;;;;;;;5074778;28;20052;-71
2023/07/16 12:46:15;;;;;;;1.85;0.90;;;;;;;;;;5074397;28;20044;-72
2023/07/16 12:48:43;;;;;;;2.63;0.85;;;;;;;;;;5074703;28;20417;-73
2023/07/16 12:51:09;;;;;;;6.95;1.00;;;;;;;;;;5073449;28;20044;-71
2023/07/16 12:53:36;;;;;;;2.08;0.68;;;;;;;;;;5070841;28;20049;-71
2023/07/16 12:56:03;;;;;;;4.07;1.27;;;;;;;;;;5070342;28;20045;-71
2023/07/16 12:58:29;;;;;;;3.25;1.10;;;;;;;;;;5070781;28;20041;-71
2023/07/16 13:00:56;;;;;;;1.65;0.93;;;;;;;;;;5070929;28;20045;-71
2023/07/16 13:03:23;;;;;;;1.77;0.80;;;;;;;;;;5070368;28;20056;-71
2023/07/16 13:05:49;;;;;;;2.78;0.70;;;;;;;;;;5070193;28;20048;-71
2023/07/16 13:08:16;;;;;;;3.53;0.90;;;;;;;;;;5073912;28;20479;-72
2023/07/16 13:10:43;;;;;;;2.38;0.90;;;;;;;;;;5075622;28;20452;-71
2023/07/16 13:13:09;;;;;;;2.05;0.80;;;;;;;;;;5075592;28;20068;-73
2023/07/16 13:15:36;;;;;;;3.92;0.98;;;;;;;;;;5075073;28;20049;-75
2023/07/16 13:18:03;;;;;;;2.90;0.80;;;;;;;;;;5075717;28;20045;-72
2023/07/16 13:20:29;;;;;;;20.60;1.67;;;;;;;;;;5069769;28;20069;-72
2023/07/16 13:22:57;;;;;;;7.10;1.15;;;;;;;;;;5070079;28;20044;-72
2023/07/16 13:25:24;;;;;;;3.80;0.80;;;;;;;;;;5069675;28;20559;-72
2023/07/16 13:27:50;;;;;;;3.92;0.95;;;;;;;;;;5069357;28;20040;-71
2023/07/16 13:30:17;;;;;;;5.93;1.30;;;;;;;;;;5064541;28;20075;-71
2023/07/16 13:32:44;;;;;;;2.25;0.85;;;;;;;;;;5072124;28;20061;-73
2023/07/16 13:35:11;;;;;;;2.25;0.82;;;;;;;;;;5064222;28;20099;-71
2023/07/16 13:37:37;;;;;;;3.28;0.90;;;;;;;;;;5058792;28;20751;-72
2023/07/16 13:40:05;;;;;;;1.90;0.80;;;;;;;;;;5062902;28;20424;-72
2023/07/16 13:42:31;;;;;;;2.90;0.90;;;;;;;;;;5061688;28;20647;-72
2023/07/16 13:44:58;;;;;;;1.77;0.77;;;;;;;;;;5062870;28;20052;-71
2023/07/16 13:47:25;;;;;;;2.88;1.00;;;;;;;;;;5064567;28;20540;-72
2023/07/16 13:49:55;;;;;;;3.38;1.00;;;;;;;;;;5063359;28;20059;-72
2023/07/16 13:52:22;;;;;;;2.90;0.93;;;;;;;;;;5062437;28;20052;-72
2023/07/16 13:54:48;;;;;;;2.33;0.93;;;;;;;;;;5059466;28;20056;-72
2023/07/16 13:57:15;;;;;;;5.10;1.48;;;;;;;;;;5060384;28;20056;-73
2023/07/16 13:59:42;;;;;;;2.45;0.90;;;;;;;;;;5063706;28;20057;-73
2023/07/16 14:02:09;;;;;;;4.45;0.90;;;;;;;;;;5062578;28;20058;-71
2023/07/16 14:04:35;;;;;;;3.45;0.98;;;;;;;;;;5063946;28;20212;-72
2023/07/16 14:07:02;;;;;;;3.00;1.00;;;;;;;;;;5062138;28;20053;-72
2023/07/16 14:09:29;;;;;;;3.00;1.10;;;;;;;;;;5065195;28;20055;-72
2023/07/16 14:11:56;;;;;;;2.95;1.00;;;;;;;;;;5061474;28;20052;-72
2023/07/16 14:14:23;;;;;;;4.20;0.98;;;;;;;;;;5071140;28;20052;-72
2023/07/16 14:16:50;;;;;;;3.17;1.05;;;;;;;;;;5063445;28;20611;-75
2023/07/16 14:19:17;;;;;;;4.05;1.13;;;;;;;;;;5064825;28;20048;-72
2023/07/16 14:21:44;;;;;;;2.42;0.93;;;;;;;;;;5064299;28;20060;-72
2023/07/16 14:24:10;;;;;;;1.80;0.80;;;;;;;;;;5072442;28;20111;-73
2023/07/16 14:26:37;;;;;;;2.83;1.00;;;;;;;;;;5069244;28;20044;-80
2023/07/16 14:29:04;;;;;;;3.45;1.20;;;;;;;;;;5074095;28;20044;-73
2023/07/16 14:31:30;;;;;;;3.20;1.00;;;;;;;;;;5073140;28;20342;-71
2023/07/16 14:33:57;;;;;;;3.65;1.10;;;;;;;;;;5074521;28;20052;-72
2023/07/16 14:36:24;;;;;;;2.05;0.93;;;;;;;;;;5073794;28;20036;-72
2023/07/16 14:38:51;;;;;;;2.97;1.08;;;;;;;;;;5073218;28;20059;-72
2023/07/16 14:41:17;;;;;;;4.05;1.02;;;;;;;;;;5074889;28;20632;-75
2023/07/16 14:43:45;;;;;;;2.85;0.93;;;;;;;;;;5073144;28;20056;-72
2023/07/16 14:46:15;;;;;;;1.50;0.80;;;;;;;;;;5074800;28;20045;-74